Time;durP1;ratioP1;P1;durP2;ratioP2;P2;SDS_P1;SDS_P2;PMS_P1;PMS_P2;Temp;Humidity;BMP_temperature;BMP_pressure;BME280_temperature;BME280_humidity;BME280_pressure;Samples;Min_cycle;Max_cycle;Signal;HPM_P1;HPM_P2
2023/09/29 00:01:33;652555.00;2.18;1125.06;22493.00;0.07;39.59;;;;;18.50;1.00;;;;;;2284035;60;1278;-88
2023/09/29 00:04:00;426240.00;1.42;734.92;15308.00;0.05;27.14;;;;;18.50;1.00;;;;;;2283988;60;2009;-87
2023/09/29 00:06:27;408229.00;1.36;703.95;54371.00;0.18;94.74;;;;;18.60;1.00;;;;;;2283899;60;1574;-86
2023/09/29 00:08:54;389902.00;1.30;672.45;0.00;0.00;0.62;;;;;18.50;1.00;;;;;;2283937;60;1121;-88
2023/09/29 00:11:21;352767.00;1.18;608.62;0.00;0.00;0.62;;;;;18.50;1.00;;;;;;2283906;60;1345;-87
2023/09/29 00:13:49;431203.00;1.44;743.45;0.00;0.00;0.62;;;;;18.60;1.00;;;;;;2283996;60;920;-88
2023/09/29 00:16:16;950146.00;3.17;1644.37;24460.00;0.08;42.99;;;;;18.70;1.00;;;;;;2283982;60;1715;-88
2023/09/29 00:18:43;610734.00;2.04;1052.76;52502.00;0.18;91.51;;;;;18.60;1.00;;;;;;2283925;60;1521;-88
2023/09/29 00:21:11;638636.00;2.13;1100.98;26928.00;0.09;47.27;;;;;18.60;1.00;;;;;;2284540;60;1253;-87
2023/09/29 00:23:37;519033.00;1.73;894.60;33396.00;0.11;58.46;;;;;18.20;1.00;;;;;;2284513;60;1999;-87
2023/09/29 00:26:05;461757.00;1.54;796.01;0.00;0.00;0.62;;;;;18.00;1.00;;;;;;2284664;60;1559;-88
2023/09/29 00:28:32;747403.00;2.49;1289.54;63186.00;0.21;109.98;;;;;17.80;1.00;;;;;;2284706;60;1030;-87
2023/09/29 00:31:00;713569.00;2.38;1230.78;70434.00;0.23;122.51;;;;;17.70;1.00;;;;;;2284547;60;1343;-86
2023/09/29 00:33:27;712612.00;2.38;1229.12;53074.00;0.18;92.50;;;;;17.70;1.00;;;;;;2284535;60;1003;-87
2023/09/29 00:35:54;528284.00;1.76;910.54;0.00;0.00;0.62;;;;;17.70;1.00;;;;;;2284650;60;1114;-87
2023/09/29 00:38:21;956814.00;3.19;1656.13;105558.00;0.35;183.16;;;;;17.70;1.00;;;;;;2284576;60;1698;-89
2023/09/29 00:40:47;626509.00;2.09;1080.01;15559.00;0.05;27.58;;;;;17.90;1.00;;;;;;2284645;60;1720;-88
2023/09/29 00:43:15;498335.00;1.66;858.96;0.00;0.00;0.62;;;;;18.10;1.00;;;;;;2284591;60;2057;-87
2023/09/29 00:45:42;498835.00;1.66;859.82;0.00;0.00;0.62;;;;;18.10;1.00;;;;;;2284649;60;975;-88
2023/09/29 00:48:12;516542.00;1.72;890.31;0.00;0.00;0.62;;;;;18.20;1.00;;;;;;2284607;60;1203;-88
2023/09/29 00:50:39;838747.00;2.80;1448.78;101877.00;0.34;176.81;;;;;18.10;1.00;;;;;;2284487;60;1618;-86
2023/09/29 00:53:11;742454.00;2.47;1280.94;91800.00;0.31;159.42;;;;;18.20;1.00;;;;;;2284629;60;967;-87
2023/09/29 00:55:41;894634.00;2.98;1546.70;123582.00;0.41;214.26;;;;;18.20;1.00;;;;;;2284406;60;1071;-89
2023/09/29 00:58:09;872962.00;2.91;1508.68;57840.00;0.19;100.74;;;;;18.10;1.00;;;;;;2284530;60;1056;-87
2023/09/29 01:00:38;980934.00;3.27;1698.73;95013.00;0.32;164.96;;;;;18.30;1.00;;;;;;2284438;60;1747;-87
2023/09/29 01:03:06;748895.00;2.50;1292.14;61667.00;0.21;107.36;;;;;18.10;1.00;;;;;;2284552;60;2001;-88
2023/09/29 01:05:38;548567.00;1.83;945.49;0.00;0.00;0.62;;;;;18.00;1.00;;;;;;2284511;60;1525;-86
2023/09/29 01:08:09;780440.00;2.60;1347.03;35092.00;0.12;61.40;;;;;18.20;1.00;;;;;;2284509;60;937;-88
2023/09/29 01:10:36;700103.00;2.33;1207.42;54843.00;0.18;95.56;;;;;18.10;1.00;;;;;;2284575;60;1443;-87
2023/09/29 01:13:04;639965.00;2.13;1103.28;13350.00;0.04;23.75;;;;;18.00;1.00;;;;;;2284502;60;1091;-86
2023/09/29 01:15:32;449933.00;1.50;775.67;45899.00;0.15;80.09;;;;;17.80;1.00;;;;;;2284477;60;964;-87
2023/09/29 01:17:59;272465.00;0.91;470.58;0.00;0.00;0.62;;;;;17.50;1.00;;;;;;2284470;60;1027;-90
2023/09/29 01:20:28;502808.00;1.68;866.66;0.00;0.00;0.62;;;;;17.10;1.00;;;;;;2284542;60;1284;-87
2023/09/29 01:22:57;836311.00;2.79;1444.53;49328.00;0.16;86.02;;;;;16.90;1.00;;;;;;2284546;60;996;-90
2023/09/29 01:25:26;627720.00;2.09;1082.11;19122.00;0.06;33.75;;;;;16.90;1.00;;;;;;2284446;60;2018;-89
2023/09/29 01:27:54;541969.00;1.81;934.12;0.00;0.00;0.62;;;;;16.90;1.00;;;;;;2284499;60;902;-88
2023/09/29 01:30:22;402700.00;1.34;694.45;0.00;0.00;0.62;;;;;16.90;1.00;;;;;;2284356;60;1392;-88
2023/09/29 01:32:50;604026.00;2.01;1041.17;4193.00;0.01;7.89;;;;;17.00;1.00;;;;;;2284510;60;1125;-89
2023/09/29 01:35:23;669848.00;2.23;1154.99;32145.00;0.11;56.30;;;;;17.30;1.00;;;;;;2284493;60;951;-88
2023/09/29 01:37:51;324274.00;1.08;559.64;29942.00;0.10;52.48;;;;;17.40;1.00;;;;;;2284454;60;1138;-87
2023/09/29 01:40:20;712257.00;2.37;1228.50;66165.00;0.22;115.13;;;;;17.50;1.00;;;;;;2284387;60;1262;-88
2023/09/29 01:42:50;690902.00;2.30;1191.47;76929.00;0.26;133.73;;;;;17.50;1.00;;;;;;2284557;60;967;-89
2023/09/29 01:45:18;791810.00;2.64;1366.84;74589.00;0.25;129.69;;;;;17.40;1.00;;;;;;2284436;60;1927;-87
2023/09/29 01:47:46;567749.00;1.89;978.56;39832.00;0.13;69.60;;;;;17.30;1.00;;;;;;2284549;60;971;-87
2023/09/29 01:50:16;523693.00;1.75;902.63;47230.00;0.16;82.40;;;;;17.30;1.00;;;;;;2284465;60;1388;-90
2023/09/29 01:52:43;1101045.00;3.67;1912.29;268575.00;0.90;463.89;;;;;16.90;1.00;;;;;;2284476;60;1097;-89
2023/09/29 01:55:14;362793.00;1.21;625.85;0.00;0.00;0.62;;;;;16.60;1.00;;;;;;2284293;60;1097;-90
2023/09/29 01:57:41;318146.00;1.06;549.11;0.00;0.00;0.62;;;;;16.40;1.00;;;;;;2284341;60;1108;-88
2023/09/29 02:00:14;452874.00;1.51;780.73;81546.00;0.27;141.71;;;;;16.50;1.00;;;;;;2284343;60;1811;-90
2023/09/29 02:02:43;174525.00;0.58;302.06;17582.00;0.06;31.08;;;;;16.30;1.00;;;;;;2284358;60;2242;-89
2023/09/29 02:05:11;162076.00;0.54;280.62;0.00;0.00;0.62;;;;;16.30;1.00;;;;;;2284260;60;1915;-87
2023/09/29 02:07:38;104582.00;0.35;181.48;0.00;0.00;0.62;;;;;16.20;1.00;;;;;;2284267;60;1340;-89
2023/09/29 02:10:07;515201.00;1.72;888.00;47388.00;0.16;82.67;;;;;15.90;1.00;;;;;;2284339;60;1406;-90
2023/09/29 02:12:34;181559.00;0.61;314.17;35453.00;0.12;62.02;;;;;15.90;1.00;;;;;;2284366;60;1055;-88
2023/09/29 02:15:03;173820.00;0.58;300.85;0.00;0.00;0.62;;;;;16.00;1.00;;;;;;2284366;60;1684;-89
2023/09/29 02:17:36;185112.00;0.62;320.29;14276.00;0.05;25.36;;;;;16.00;1.00;;;;;;2284234;60;1075;-87
2023/09/29 02:20:25;27643.00;0.09;48.50;0.00;0.00;0.62;;;;;15.90;1.00;;;;;;2284407;60;1336;-89
2023/09/29 02:22:55;140361.00;0.47;243.19;15872.00;0.05;28.12;;;;;15.80;1.00;;;;;;2284356;60;1103;-87
2023/09/29 02:25:25;86552.00;0.29;150.35;0.00;0.00;0.62;;;;;15.70;1.00;;;;;;2284143;60;2020;-87
2023/09/29 02:27:54;27473.00;0.09;48.21;0.00;0.00;0.62;;;;;16.00;1.00;;;;;;2284320;60;2099;-87
2023/09/29 02:30:21;63641.00;0.21;110.77;0.00;0.00;0.62;;;;;15.90;1.00;;;;;;2284183;60;1542;-89
2023/09/29 02:32:52;163019.00;0.54;282.24;0.00;0.00;0.62;;;;;15.80;1.60;;;;;;2284287;60;1014;-87
2023/09/29 02:35:19;132770.00;0.44;230.11;18046.00;0.06;31.89;;;;;15.70;1.50;;;;;;2284286;60;1090;-88
2023/09/29 02:37:47;30966.00;0.10;54.26;0.00;0.00;0.62;;;;;16.00;1.00;;;;;;2284265;60;1511;-88
2023/09/29 02:40:15;55701.00;0.19;97.04;0.00;0.00;0.62;;;;;16.30;1.00;;;;;;2284298;60;1391;-88
2023/09/29 02:42:44;118257.00;0.39;205.08;1726.00;0.01;3.61;;;;;16.40;1.00;;;;;;2284132;60;1204;-89
2023/09/29 02:45:11;11145.00;0.04;19.93;0.00;0.00;0.62;;;;;16.80;1.00;;;;;;2284241;60;2014;-89
2023/09/29 02:47:39;23799.00;0.08;41.85;0.00;0.00;0.62;;;;;16.90;1.00;;;;;;2284184;60;1604;-88
2023/09/29 02:50:09;250028.00;0.83;432.00;10282.00;0.03;18.44;;;;;16.70;1.00;;;;;;2284300;60;1358;-87
2023/09/29 02:52:36;48829.00;0.16;85.16;0.00;0.00;0.62;;;;;16.60;1.00;;;;;;2284206;60;1152;-88
2023/09/29 02:55:04;121747.00;0.41;211.10;0.00;0.00;0.62;;;;;16.60;1.00;;;;;;2284143;60;974;-88
2023/09/29 02:57:32;158403.00;0.53;274.29;6397.00;0.02;11.71;;;;;16.60;1.00;;;;;;2284281;60;1159;-90
2023/09/29 02:59:58;204233.00;0.68;353.21;9744.00;0.03;17.51;;;;;16.70;1.00;;;;;;2284145;60;1366;-89
2023/09/29 03:02:26;267073.00;0.89;461.31;5482.00;0.02;10.12;;;;;16.70;1.00;;;;;;2284463;60;1036;-88
2023/09/29 03:04:52;75396.00;0.25;131.08;0.00;0.00;0.62;;;;;16.80;1.00;;;;;;2284545;60;1910;-86
2023/09/29 03:07:21;465985.00;1.55;803.28;0.00;0.00;0.62;;;;;16.70;1.00;;;;;;2284565;60;894;-89
2023/09/29 03:09:48;527789.00;1.76;909.68;47411.00;0.16;82.71;;;;;16.50;1.00;;;;;;2284396;60;1381;-88
2023/09/29 03:12:16;414302.00;1.38;714.39;37775.00;0.13;66.04;;;;;16.20;1.00;;;;;;2284506;60;1059;-89
2023/09/29 03:14:43;312332.00;1.04;539.12;10526.00;0.04;18.86;;;;;16.20;1.00;;;;;;2284400;60;1014;-88
2023/09/29 03:17:10;269702.00;0.90;465.83;0.00;0.00;0.62;;;;;16.20;1.00;;;;;;2284465;60;1063;-88
2023/09/29 03:19:37;657414.00;2.19;1133.47;16935.00;0.06;29.96;;;;;16.30;1.00;;;;;;2284360;60;1590;-88
2023/09/29 03:22:04;248886.00;0.83;430.04;16365.00;0.05;28.97;;;;;16.60;1.00;;;;;;2284511;60;1707;-89
2023/09/29 03:24:34;407217.00;1.36;702.21;7427.00;0.02;13.49;;;;;16.50;1.00;;;;;;2284388;60;1919;-90
2023/09/29 03:27:01;400756.00;1.34;691.10;16501.00;0.06;29.21;;;;;16.40;1.00;;;;;;2284430;60;1424;-88
2023/09/29 03:29:28;501800.00;1.67;864.92;46868.00;0.16;81.77;;;;;16.60;1.00;;;;;;2284391;60;1726;-87
2023/09/29 03:31:54;370801.00;1.24;639.61;7027.00;0.02;12.80;;;;;16.60;1.00;;;;;;2284516;60;1323;-88
2023/09/29 03:34:23;368465.00;1.23;635.60;12506.00;0.04;22.29;;;;;16.70;1.00;;;;;;2284410;60;1770;-88
2023/09/29 03:36:51;535314.00;1.78;922.65;47869.00;0.16;83.50;;;;;16.80;1.00;;;;;;2284348;60;1358;-90
2023/09/29 03:39:18;556604.00;1.86;959.34;0.00;0.00;0.62;;;;;16.40;1.00;;;;;;2284385;60;1101;-88
2023/09/29 03:44:15;494030.00;1.65;851.55;33965.00;0.11;59.45;;;;;16.50;1.00;;;;;;2285833;60;1966;-88
2023/09/29 03:46:41;191411.00;0.64;331.14;0.00;0.00;0.62;;;;;16.50;1.00;;;;;;2284321;60;1094;-89
2023/09/29 03:49:10;335846.00;1.12;579.53;16940.00;0.06;29.97;;;;;16.60;1.00;;;;;;2284363;60;1663;-88
2023/09/29 03:51:38;320755.00;1.07;553.60;14857.00;0.05;26.36;;;;;16.60;1.00;;;;;;2284284;60;1831;-89
2023/09/29 03:54:09;366292.00;1.22;631.86;0.00;0.00;0.62;;;;;16.40;1.00;;;;;;2284627;60;1666;-89
2023/09/29 03:56:36;130835.00;0.44;226.77;24768.00;0.08;43.53;;;;;16.50;1.00;;;;;;2285077;60;1705;-88
2023/09/29 03:59:03;351684.00;1.17;606.76;51717.00;0.17;90.16;;;;;16.40;1.00;;;;;;2285135;60;1081;-89
2023/09/29 04:01:32;643225.00;2.14;1108.92;35044.00;0.12;61.31;;;;;16.40;1.00;;;;;;2284973;60;1424;-89
2023/09/29 04:04:01;217964.00;0.73;376.84;0.00;0.00;0.62;;;;;16.30;1.00;;;;;;2284984;60;2004;-88
2023/09/29 04:06:27;0.00;0.00;0.62;0.00;0.00;0.62;;;;;16.30;1.00;;;;;;2285056;60;2058;-88
2023/09/29 04:08:55;484902.00;1.62;835.83;56448.00;0.19;98.34;;;;;16.40;1.00;;;;;;2285001;60;1649;-89
2023/09/29 04:11:22;132062.00;0.44;228.88;0.00;0.00;0.62;;;;;16.40;1.00;;;;;;2285060;60;1412;-88
2023/09/29 04:13:49;338022.00;1.13;583.27;0.00;0.00;0.62;;;;;16.20;1.00;;;;;;2284983;60;1034;-88
2023/09/29 04:16:17;332829.00;1.11;574.35;0.00;0.00;0.62;;;;;16.10;1.00;;;;;;2284913;60;1026;-90
2023/09/29 04:18:45;137968.00;0.46;239.07;0.00;0.00;0.62;;;;;16.00;1.00;;;;;;2284918;60;1664;-89
2023/09/29 04:21:14;82922.00;0.28;144.08;0.00;0.00;0.62;;;;;16.10;1.00;;;;;;2284923;60;2071;-89
2023/09/29 04:23:41;187583.00;0.63;324.55;41490.00;0.14;72.47;;;;;16.10;1.00;;;;;;2285026;60;1020;-89
2023/09/29 04:26:16;371891.00;1.24;641.49;0.00;0.00;0.62;;;;;16.10;1.00;;;;;;2284987;60;2375;-89
2023/09/29 04:28:44;357536.00;1.19;616.81;0.00;0.00;0.62;;;;;16.10;1.00;;;;;;2284996;60;980;-90
2023/09/29 04:31:12;348714.00;1.16;601.65;26298.00;0.09;46.17;;;;;16.20;1.00;;;;;;2284988;60;1289;-88
2023/09/29 04:33:39;328550.00;1.10;566.99;30506.00;0.10;53.46;;;;;15.70;1.00;;;;;;2284935;60;1605;-88
2023/09/29 04:36:08;752026.00;2.51;1297.58;8603.00;0.03;15.53;;;;;15.80;1.00;;;;;;2284933;60;1701;-88
2023/09/29 04:38:36;678704.00;2.26;1170.33;30048.00;0.10;52.67;;;;;15.80;1.00;;;;;;2285004;60;1020;-89
2023/09/29 04:41:04;426940.00;1.42;736.12;10795.00;0.04;19.33;;;;;16.00;1.00;;;;;;2284909;60;1606;-87
2023/09/29 04:43:31;649681.00;2.17;1120.08;50224.00;0.17;87.57;;;;;15.90;1.00;;;;;;2284966;60;1134;-90
2023/09/29 04:45:58;572471.00;1.91;986.71;32584.00;0.11;57.06;;;;;15.80;1.00;;;;;;2284849;60;2000;-88
2023/09/29 04:48:25;604262.00;2.01;1041.58;28106.00;0.09;49.30;;;;;16.00;1.00;;;;;;2284831;60;1613;-89
2023/09/29 04:50:51;243691.00;0.81;421.10;0.00;0.00;0.62;;;;;15.90;1.00;;;;;;2284926;60;1356;-88
2023/09/29 04:53:20;933775.00;3.11;1615.52;75757.00;0.25;131.71;;;;;16.00;1.00;;;;;;2284906;60;948;-88
2023/09/29 04:55:46;466110.00;1.55;803.50;0.00;0.00;0.62;;;;;15.80;1.00;;;;;;2284863;60;1109;-88
2023/09/29 04:58:14;593415.00;1.98;1022.85;2868.00;0.01;5.59;;;;;15.60;1.00;;;;;;2284885;60;1010;-89
2023/09/29 05:03:11;929644.00;3.10;1608.25;2657.00;0.01;5.23;;;;;15.90;1.00;;;;;;2286368;60;1341;-90
2023/09/29 05:05:40;483176.00;1.61;832.86;21827.00;0.07;38.43;;;;;16.00;1.00;;;;;;2289181;55;3563;-88
2023/09/29 05:08:07;608638.00;2.03;1049.14;25381.00;0.08;44.59;;;;;16.40;1.00;;;;;;2297191;40;3615;-88
2023/09/29 05:10:36;393779.00;1.31;679.11;10553.00;0.04;18.91;;;;;16.60;1.00;;;;;;2285462;61;1267;-87
2023/09/29 05:13:02;325840.00;1.09;562.34;0.00;0.00;0.62;;;;;16.10;1.00;;;;;;2284899;60;976;-89
2023/09/29 05:15:48;601344.00;2.00;1036.54;71325.00;0.24;124.05;;;;;15.70;1.00;;;;;;2284876;60;1134;-89
2023/09/29 05:18:15;71443.00;0.24;124.25;0.00;0.00;0.62;;;;;15.40;1.30;;;;;;2284820;60;1325;-87
2023/09/29 05:20:44;670455.00;2.23;1156.04;82999.00;0.28;144.22;;;;;15.30;2.70;;;;;;2284718;60;1383;-89
2023/09/29 05:25:45;308216.00;1.03;532.04;0.00;0.00;0.62;;;;;15.70;1.10;;;;;;2287088;61;1949;-90
2023/09/29 05:28:12;135012.00;0.45;233.97;0.00;0.00;0.62;;;;;16.30;2.10;;;;;;2284664;60;964;-87
2023/09/29 05:30:39;405398.00;1.35;699.09;24866.00;0.08;43.70;;;;;17.20;1.00;;;;;;2284601;60;1646;-87
2023/09/29 05:33:06;315502.00;1.05;544.57;8098.00;0.03;14.65;;;;;17.80;1.00;;;;;;2282170;60;1844;-88
2023/09/29 05:35:33;597333.00;1.99;1029.62;0.00;0.00;0.62;;;;;18.30;1.00;;;;;;2280755;60;910;-88
2023/09/29 05:38:01;700536.00;2.34;1208.17;12762.00;0.04;22.73;;;;;18.10;1.00;;;;;;2277154;60;1178;-88
2023/09/29 05:40:28;558625.00;1.86;962.83;51109.00;0.17;89.10;;;;;18.40;1.00;;;;;;2280630;60;1410;-90
2023/09/29 05:42:56;793804.00;2.65;1370.32;17789.00;0.06;31.44;;;;;18.30;1.00;;;;;;2280678;60;1076;-88
2023/09/29 05:45:23;442889.00;1.48;763.55;10702.00;0.04;19.17;;;;;18.60;1.00;;;;;;2280617;60;1927;-88
2023/09/29 05:47:51;476107.00;1.59;820.70;25473.00;0.08;44.75;;;;;18.70;1.00;;;;;;2280616;60;1007;-88
2023/09/29 05:50:18;482906.00;1.61;832.40;0.00;0.00;0.62;;;;;18.70;1.00;;;;;;2280639;60;1416;-87
2023/09/29 05:52:45;450824.00;1.50;777.20;29917.00;0.10;52.44;;;;;18.70;1.00;;;;;;2280704;60;1129;-86
2023/09/29 05:55:13;491292.00;1.64;846.83;38156.00;0.13;66.70;;;;;18.70;1.00;;;;;;2280691;60;908;-87
2023/09/29 05:57:39;303764.00;1.01;524.39;0.00;0.00;0.62;;;;;18.80;1.00;;;;;;2280682;60;1099;-88
2023/09/29 06:00:13;796841.00;2.66;1375.62;68006.00;0.23;118.31;;;;;18.90;1.00;;;;;;2280568;60;1737;-88
2023/09/29 06:02:40;512716.00;1.71;883.72;41467.00;0.14;72.43;;;;;19.40;1.00;;;;;;2280636;60;963;-87
2023/09/29 06:05:07;373585.00;1.25;644.40;0.00;0.00;0.62;;;;;19.90;1.00;;;;;;2280643;60;1997;-88
2023/09/29 06:07:34;789885.00;2.63;1363.49;66886.00;0.22;116.38;;;;;20.40;1.00;;;;;;2280623;60;1044;-89
2023/09/29 06:10:02;575711.00;1.92;992.30;15180.00;0.05;26.92;;;;;20.00;1.00;;;;;;2280587;60;1369;-87
2023/09/29 06:12:29;387689.00;1.29;668.64;0.00;0.00;0.62;;;;;19.80;1.00;;;;;;2280621;60;1047;-88
2023/09/29 06:14:56;441992.00;1.47;762.01;32275.00;0.11;56.52;;;;;20.10;1.00;;;;;;2280644;60;1098;-89
2023/09/29 06:17:25;723830.00;2.41;1248.59;0.00;0.00;0.62;;;;;20.80;1.00;;;;;;2280299;60;1043;-87
2023/09/29 06:19:52;524709.00;1.75;904.38;13187.00;0.04;23.47;;;;;21.40;1.00;;;;;;2280524;60;1355;-89
2023/09/29 06:22:19;590303.00;1.97;1017.48;21885.00;0.07;38.53;;;;;22.30;1.00;;;;;;2280639;60;1136;-87
2023/09/29 06:24:47;289029.00;0.96;499.06;26746.00;0.09;46.95;;;;;23.20;1.00;;;;;;2280472;60;1917;-89
2023/09/29 06:27:14;483735.00;1.61;833.83;0.00;0.00;0.62;;;;;23.70;1.00;;;;;;2280558;60;1098;-87
2023/09/29 06:29:41;701673.00;2.34;1210.14;69490.00;0.23;120.88;;;;;24.40;1.00;;;;;;2280571;60;1297;-87
2023/09/29 06:32:09;202088.00;0.67;349.52;0.00;0.00;0.62;;;;;24.80;1.00;;;;;;2280561;60;1086;-88
2023/09/29 06:34:37;424467.00;1.41;731.87;0.00;0.00;0.62;;;;;25.10;1.00;;;;;;2280571;60;1082;-87
2023/09/29 06:37:04;348928.00;1.16;602.02;24431.00;0.08;42.94;;;;;25.00;1.00;;;;;;2280547;60;2267;-88
2023/09/29 06:39:31;229851.00;0.77;397.29;0.00;0.00;0.62;;;;;25.10;1.00;;;;;;2280480;60;1619;-88
2023/09/29 06:41:58;351149.00;1.17;605.84;28364.00;0.09;49.75;;;;;24.80;1.00;;;;;;2280483;60;1445;-88
2023/09/29 06:44:25;367434.00;1.22;633.83;1252.00;0.00;2.79;;;;;25.10;1.00;;;;;;2280457;60;1126;-89
2023/09/29 06:46:51;491532.00;1.64;847.25;29425.00;0.10;51.59;;;;;25.50;1.00;;;;;;2280451;60;1933;-89
2023/09/29 06:49:18;349684.00;1.17;603.32;0.00;0.00;0.62;;;;;25.50;1.00;;;;;;2280494;60;1058;-86
2023/09/29 06:51:46;686090.00;2.29;1183.13;107338.00;0.36;186.24;;;;;25.10;1.00;;;;;;2280536;60;1430;-88
2023/09/29 06:54:13;265995.00;0.89;459.46;9428.00;0.03;16.96;;;;;24.30;1.00;;;;;;2280519;60;1126;-87
2023/09/29 06:56:40;501787.00;1.67;864.90;31413.00;0.10;55.03;;;;;23.40;1.00;;;;;;2280512;60;1062;-88
2023/09/29 06:59:07;441682.00;1.47;761.48;4238.00;0.01;7.97;;;;;22.80;1.00;;;;;;2280379;60;1726;-88
2023/09/29 07:01:34;578999.00;1.93;997.97;10827.00;0.04;19.38;;;;;22.90;1.00;;;;;;2280425;60;1479;-87
2023/09/29 07:04:01;491004.00;1.64;846.34;36630.00;0.12;64.06;;;;;23.00;1.00;;;;;;2280440;60;1031;-89
2023/09/29 07:06:28;223536.00;0.75;386.43;0.00;0.00;0.62;;;;;23.30;1.00;;;;;;2280416;60;1913;-87
2023/09/29 07:08:56;486936.00;1.62;839.33;44466.00;0.15;77.61;;;;;23.20;1.00;;;;;;2280387;60;1134;-88
2023/09/29 07:11:23;523601.00;1.75;902.47;10903.00;0.04;19.51;;;;;23.00;1.00;;;;;;2280428;60;1385;-87
2023/09/29 07:13:50;320785.00;1.07;553.65;6189.00;0.02;11.35;;;;;22.90;1.00;;;;;;2280459;60;945;-89
2023/09/29 07:16:19;499787.00;1.67;861.46;26378.00;0.09;46.31;;;;;22.60;1.00;;;;;;2280296;60;1515;-87
2023/09/29 07:18:46;677691.00;2.26;1168.57;10866.00;0.04;19.45;;;;;22.30;1.00;;;;;;2280372;60;1144;-86
2023/09/29 07:21:14;515812.00;1.72;889.05;0.00;0.00;0.62;;;;;21.90;1.00;;;;;;2280379;60;1303;-87
2023/09/29 07:23:40;483885.00;1.61;834.08;4795.00;0.02;8.93;;;;;22.00;1.00;;;;;;2280296;60;1451;-88
2023/09/29 07:26:09;663272.00;2.21;1143.60;36332.00;0.12;63.54;;;;;21.80;1.00;;;;;;2280244;60;2006;-87
2023/09/29 07:28:35;362967.00;1.21;626.15;12155.00;0.04;21.68;;;;;22.00;1.00;;;;;;2280323;60;1090;-88
2023/09/29 07:31:03;587199.00;1.96;1012.12;12607.00;0.04;22.47;;;;;22.00;1.00;;;;;;2280396;60;1395;-87
2023/09/29 07:33:29;609162.00;2.03;1050.04;32691.00;0.11;57.24;;;;;21.90;1.00;;;;;;2280415;60;1039;-88
2023/09/29 07:35:56;117296424.00;390.99;65370500.00;16876.00;0.06;29.86;;;;;21.80;1.00;;;;;;2280424;60;1068;-88
2023/09/29 07:38:23;562021.00;1.87;968.69;68143.00;0.23;118.55;;;;;21.80;1.00;;;;;;2280413;60;1045;-89
2023/09/29 07:40:50;476770.00;1.59;821.84;10827.00;0.04;19.38;;;;;22.20;1.00;;;;;;2280357;60;1277;-87
2023/09/29 07:43:18;685317.00;2.28;1181.79;84515.00;0.28;146.84;;;;;22.50;1.00;;;;;;2280338;60;1093;-88
2023/09/29 07:45:45;622424.00;2.07;1072.95;2652.00;0.01;5.22;;;;;22.20;1.00;;;;;;2280326;60;2004;-89
2023/09/29 07:48:12;772862.00;2.58;1333.84;72717.00;0.24;126.46;;;;;22.30;1.00;;;;;;2280351;60;1146;-90
2023/09/29 07:50:39;721613.00;2.41;1244.74;64629.00;0.22;112.48;;;;;22.90;1.00;;;;;;2280303;60;1394;-87
2023/09/29 07:53:06;523293.00;1.74;901.94;13222.00;0.04;23.53;;;;;23.50;1.00;;;;;;2280362;60;920;-89
2023/09/29 07:55:33;721950.00;2.41;1245.32;36745.00;0.12;64.26;;;;;23.80;1.00;;;;;;2280309;60;1058;-88
2023/09/29 07:58:00;665127.00;2.22;1146.82;36723.00;0.12;64.22;;;;;24.00;1.00;;;;;;2280194;60;970;-88
2023/09/29 08:00:28;536012.00;1.79;923.85;40176.00;0.13;70.19;;;;;24.20;1.00;;;;;;2280232;60;1286;-88
2023/09/29 08:02:55;499506.00;1.67;860.97;0.00;0.00;0.62;;;;;24.00;1.00;;;;;;2280297;60;1549;-88
2023/09/29 08:05:22;479422.00;1.60;826.40;0.00;0.00;0.62;;;;;24.10;1.00;;;;;;2280282;60;2000;-89
2023/09/29 08:07:48;681371.00;2.27;1174.95;86623.00;0.29;150.48;;;;;24.20;1.00;;;;;;2280292;60;971;-87
2023/09/29 08:10:15;454009.00;1.51;782.68;0.00;0.00;0.62;;;;;24.50;1.00;;;;;;2280211;60;1382;-87
2023/09/29 08:12:42;480029.00;1.60;827.45;51839.00;0.17;90.37;;;;;24.70;1.00;;;;;;2280265;60;1027;-87
2023/09/29 08:15:11;485269.00;1.62;836.47;0.00;0.00;0.62;;;;;24.70;1.00;;;;;;2280266;60;1062;-87
2023/09/29 08:17:39;478361.00;1.59;824.58;0.00;0.00;0.62;;;;;25.00;1.00;;;;;;2280217;60;1617;-88
2023/09/29 08:20:07;573529.00;1.91;988.53;1694.00;0.01;3.56;;;;;25.30;1.00;;;;;;2280198;60;1419;-87
2023/09/29 08:22:34;503798.00;1.68;868.36;360.00;0.00;1.24;;;;;25.10;1.00;;;;;;2280268;60;1094;-88
2023/09/29 08:25:03;423745.00;1.41;730.63;12157.00;0.04;21.69;;;;;25.10;1.00;;;;;;2280156;60;1143;-87
2023/09/29 08:27:30;293525.00;0.98;506.79;1031.00;0.00;2.41;;;;;24.70;1.00;;;;;;2280291;60;2005;-86
2023/09/29 08:29:56;425748.00;1.42;734.07;4053.00;0.01;7.64;;;;;24.70;1.00;;;;;;2280228;60;1409;-87
2023/09/29 08:32:23;635239.00;2.12;1095.11;9281.00;0.03;16.70;;;;;25.00;1.00;;;;;;2280230;60;1099;-88
2023/09/29 08:34:51;532055.00;1.77;917.03;4134.00;0.01;7.78;;;;;24.60;1.00;;;;;;2280229;60;928;-87
2023/09/29 08:37:18;311366.00;1.04;537.46;0.00;0.00;0.62;;;;;24.70;1.00;;;;;;2280241;60;935;-88
2023/09/29 08:39:45;147943.00;0.49;256.26;0.00;0.00;0.62;;;;;24.90;1.00;;;;;;2280253;60;1418;-88
2023/09/29 08:42:27;437864.00;1.46;754.91;28002.00;0.09;49.12;;;;;25.10;1.00;;;;;;2280778;60;1073;-88
2023/09/29 08:44:58;354862.00;1.18;612.22;8986.00;0.03;16.19;;;;;25.40;1.00;;;;;;2280749;60;1020;-88
2023/09/29 08:47:29;471001.00;1.57;811.91;25859.00;0.09;45.41;;;;;25.50;1.00;;;;;;2280709;60;1923;-87
2023/09/29 08:49:58;595215.00;1.98;1025.96;60169.00;0.20;104.77;;;;;25.70;1.00;;;;;;2280876;60;1359;-87
2023/09/29 08:52:28;238809.00;0.80;412.70;0.00;0.00;0.62;;;;;25.80;1.00;;;;;;2280836;60;1125;-86
2023/09/29 08:54:56;521013.00;1.74;898.01;0.00;0.00;0.62;;;;;25.80;1.00;;;;;;2280891;60;1153;-87
2023/09/29 08:57:25;559641.00;1.87;964.58;18865.00;0.06;33.30;;;;;25.90;1.00;;;;;;2280842;60;1067;-86
2023/09/29 08:59:55;460918.00;1.54;794.56;0.00;0.00;0.62;;;;;25.80;1.00;;;;;;2280844;60;1405;-88
2023/09/29 09:02:24;417794.00;1.39;720.40;18059.00;0.06;31.91;;;;;24.80;1.00;;;;;;2280787;60;1616;-88
2023/09/29 09:04:51;188323.00;0.63;325.82;0.00;0.00;0.62;;;;;24.20;1.00;;;;;;2280843;60;1163;-87
2023/09/29 09:07:20;361673.00;1.21;623.92;0.00;0.00;0.62;;;;;24.40;1.00;;;;;;2280746;60;1996;-87
2023/09/29 09:09:51;564434.00;1.88;972.85;58163.00;0.19;101.30;;;;;24.40;1.00;;;;;;2280768;60;1679;-87
2023/09/29 09:12:18;0.00;0.00;0.62;0.00;0.00;0.62;;;;;24.70;1.00;;;;;;2280828;60;1082;-88
2023/09/29 09:14:45;122669.00;0.41;212.69;34862.00;0.12;61.00;;;;;25.10;1.00;;;;;;2280714;60;1118;-87
2023/09/29 09:17:13;0.00;0.00;0.62;0.00;0.00;0.62;;;;;25.20;1.00;;;;;;2280830;60;1153;-87
2023/09/29 09:19:45;0.00;0.00;0.62;0.00;0.00;0.62;;;;;25.60;1.00;;;;;;2280670;60;1414;-85
2023/09/29 09:22:16;409118.00;1.36;705.48;56797.00;0.19;98.94;;;;;25.80;1.00;;;;;;2280746;60;1821;-87
2023/09/29 09:24:45;410326.00;1.37;707.56;30834.00;0.10;54.03;;;;;25.90;1.00;;;;;;2280698;60;939;-88
2023/09/29 09:27:13;372283.00;1.24;642.16;29902.00;0.10;52.41;;;;;26.00;1.00;;;;;;2280681;60;2018;-87
2023/09/29 09:29:42;197598.00;0.66;341.79;0.00;0.00;0.62;;;;;26.10;1.00;;;;;;2280694;60;1394;-87
2023/09/29 09:32:10;153232.00;0.51;265.38;0.00;0.00;0.62;;;;;26.40;1.00;;;;;;2280647;60;1717;-87
2023/09/29 09:34:38;162544.00;0.54;281.42;0.00;0.00;0.62;;;;;26.20;1.00;;;;;;2280585;60;997;-88
2023/09/29 09:37:06;92642.00;0.31;160.87;0.00;0.00;0.62;;;;;26.50;1.00;;;;;;2280701;60;1146;-87
2023/09/29 09:39:35;0.00;0.00;0.62;0.00;0.00;0.62;;;;;26.50;1.00;;;;;;2280617;60;980;-88
2023/09/29 09:42:05;0.00;0.00;0.62;0.00;0.00;0.62;;;;;26.60;1.00;;;;;;2280665;60;1071;-88
2023/09/29 09:44:34;48149.00;0.16;83.98;0.00;0.00;0.62;;;;;27.00;1.00;;;;;;2280712;60;924;-86
2023/09/29 09:47:01;50195.00;0.17;87.52;0.00;0.00;0.62;;;;;27.30;1.00;;;;;;2280564;60;2006;-88
2023/09/29 09:49:38;17065.00;0.06;30.19;0.00;0.00;0.62;;;;;27.40;1.00;;;;;;2280615;60;1027;-87
2023/09/29 09:52:08;0.00;0.00;0.62;0.00;0.00;0.62;;;;;27.60;1.00;;;;;;2280651;60;1086;-89